sensor_id;sensor_type;location;lat;lon;timestamp;P1;durP1;ratioP1;P2;durP2;ratioP2
70169;SDS011;57543;45.442;9.212;2024-03-07T00:02:19;8.85;;;5.40;;
70169;SDS011;57543;45.442;9.212;2024-03-07T00:05:23;8.18;;;5.43;;
70169;SDS011;57543;45.442;9.212;2024-03-07T00:08:33;11.20;;;5.82;;
70169;SDS011;57543;45.442;9.212;2024-03-07T00:11:39;11.23;;;5.93;;
70169;SDS011;57543;45.442;9.212;2024-03-07T00:14:47;11.57;;;6.60;;
70169;SDS011;57543;45.442;9.212;2024-03-07T00:17:51;10.68;;;6.57;;
70169;SDS011;57543;45.442;9.212;2024-03-07T00:20:54;10.73;;;6.30;;
70169;SDS011;57543;45.442;9.212;2024-03-07T00:24:01;10.50;;;6.65;;
70169;SDS011;57543;45.442;9.212;2024-03-07T00:27:08;11.10;;;6.53;;
70169;SDS011;57543;45.442;9.212;2024-03-07T00:30:11;11.20;;;6.40;;
70169;SDS011;57543;45.442;9.212;2024-03-07T00:33:21;15.43;;;7.43;;
70169;SDS011;57543;45.442;9.212;2024-03-07T00:36:27;13.25;;;7.03;;
70169;SDS011;57543;45.442;9.212;2024-03-07T00:39:30;13.20;;;7.63;;
70169;SDS011;57543;45.442;9.212;2024-03-07T00:42:34;15.17;;;8.03;;
70169;SDS011;57543;45.442;9.212;2024-03-07T00:45:37;12.15;;;7.57;;
70169;SDS011;57543;45.442;9.212;2024-03-07T00:48:41;13.82;;;8.35;;
70169;SDS011;57543;45.442;9.212;2024-03-07T00:51:44;15.35;;;8.80;;
70169;SDS011;57543;45.442;9.212;2024-03-07T00:54:53;14.15;;;8.40;;
70169;SDS011;57543;45.442;9.212;2024-03-07T00:58:02;14.63;;;7.83;;
70169;SDS011;57543;45.442;9.212;2024-03-07T01:01:06;13.00;;;7.72;;
70169;SDS011;57543;45.442;9.212;2024-03-07T01:04:10;15.55;;;8.43;;
70169;SDS011;57543;45.442;9.212;2024-03-07T01:07:17;15.02;;;8.40;;
70169;SDS011;57543;45.442;9.212;2024-03-07T01:10:24;13.88;;;8.25;;
70169;SDS011;57543;45.442;9.212;2024-03-07T01:13:28;13.90;;;8.40;;
70169;SDS011;57543;45.442;9.212;2024-03-07T01:16:35;18.55;;;8.40;;
70169;SDS011;57543;45.442;9.212;2024-03-07T01:19:41;15.05;;;8.77;;
70169;SDS011;57543;45.442;9.212;2024-03-07T01:22:45;13.15;;;8.02;;
70169;SDS011;57543;45.442;9.212;2024-03-07T01:25:55;13.85;;;8.63;;
70169;SDS011;57543;45.442;9.212;2024-03-07T01:29:03;16.07;;;9.00;;
70169;SDS011;57543;45.442;9.212;2024-03-07T01:32:13;15.45;;;9.15;;
70169;SDS011;57543;45.442;9.212;2024-03-07T01:35:18;17.15;;;9.23;;
70169;SDS011;57543;45.442;9.212;2024-03-07T01:38:25;15.32;;;8.63;;
70169;SDS011;57543;45.442;9.212;2024-03-07T01:41:29;15.90;;;9.13;;
70169;SDS011;57543;45.442;9.212;2024-03-07T01:44:35;15.53;;;8.97;;
70169;SDS011;57543;45.442;9.212;2024-03-07T01:47:42;14.52;;;9.25;;
70169;SDS011;57543;45.442;9.212;2024-03-07T01:50:46;14.07;;;9.10;;
70169;SDS011;57543;45.442;9.212;2024-03-07T01:53:50;13.88;;;9.43;;
70169;SDS011;57543;45.442;9.212;2024-03-07T01:56:55;14.95;;;8.98;;
70169;SDS011;57543;45.442;9.212;2024-03-07T01:59:59;15.17;;;9.40;;
70169;SDS011;57543;45.442;9.212;2024-03-07T02:03:10;15.90;;;9.52;;
70169;SDS011;57543;45.442;9.212;2024-03-07T02:06:13;13.57;;;9.18;;
70169;SDS011;57543;45.442;9.212;2024-03-07T02:09:17;16.35;;;9.55;;
70169;SDS011;57543;45.442;9.212;2024-03-07T02:12:20;14.93;;;9.38;;
70169;SDS011;57543;45.442;9.212;2024-03-07T02:15:25;15.30;;;9.70;;
70169;SDS011;57543;45.442;9.212;2024-03-07T02:18:29;17.33;;;10.02;;
70169;SDS011;57543;45.442;9.212;2024-03-07T02:21:33;14.77;;;9.30;;
70169;SDS011;57543;45.442;9.212;2024-03-07T02:24:37;13.52;;;8.80;;
70169;SDS011;57543;45.442;9.212;2024-03-07T02:27:40;14.43;;;9.85;;
70169;SDS011;57543;45.442;9.212;2024-03-07T02:30:51;17.30;;;10.80;;
70169;SDS011;57543;45.442;9.212;2024-03-07T02:33:55;15.27;;;9.95;;
70169;SDS011;57543;45.442;9.212;2024-03-07T02:36:59;17.13;;;10.60;;
70169;SDS011;57543;45.442;9.212;2024-03-07T02:40:02;15.35;;;10.05;;
70169;SDS011;57543;45.442;9.212;2024-03-07T02:43:06;14.93;;;9.98;;
70169;SDS011;57543;45.442;9.212;2024-03-07T02:46:10;16.93;;;10.20;;
70169;SDS011;57543;45.442;9.212;2024-03-07T02:49:15;18.52;;;10.02;;
70169;SDS011;57543;45.442;9.212;2024-03-07T02:52:19;17.50;;;10.90;;
70169;SDS011;57543;45.442;9.212;2024-03-07T02:55:22;17.08;;;10.82;;
70169;SDS011;57543;45.442;9.212;2024-03-07T02:58:29;17.20;;;10.70;;
70169;SDS011;57543;45.442;9.212;2024-03-07T03:01:39;15.20;;;10.00;;
70169;SDS011;57543;45.442;9.212;2024-03-07T03:04:43;18.52;;;10.27;;
70169;SDS011;57543;45.442;9.212;2024-03-07T03:07:46;16.27;;;11.18;;
70169;SDS011;57543;45.442;9.212;2024-03-07T03:10:58;18.40;;;11.00;;
70169;SDS011;57543;45.442;9.212;2024-03-07T03:14:02;20.83;;;10.98;;
70169;SDS011;57543;45.442;9.212;2024-03-07T03:17:07;19.97;;;12.03;;
70169;SDS011;57543;45.442;9.212;2024-03-07T03:20:12;17.05;;;11.02;;
70169;SDS011;57543;45.442;9.212;2024-03-07T03:23:27;18.67;;;11.05;;
70169;SDS011;57543;45.442;9.212;2024-03-07T03:26:31;17.33;;;10.45;;
70169;SDS011;57543;45.442;9.212;2024-03-07T03:29:35;16.77;;;11.18;;
70169;SDS011;57543;45.442;9.212;2024-03-07T03:32:39;17.70;;;11.00;;
70169;SDS011;57543;45.442;9.212;2024-03-07T03:35:43;19.10;;;11.60;;
70169;SDS011;57543;45.442;9.212;2024-03-07T03:38:47;17.40;;;11.15;;
70169;SDS011;57543;45.442;9.212;2024-03-07T03:41:51;15.57;;;10.52;;
70169;SDS011;57543;45.442;9.212;2024-03-07T03:44:54;17.63;;;11.95;;
70169;SDS011;57543;45.442;9.212;2024-03-07T03:48:01;18.60;;;11.43;;
70169;SDS011;57543;45.442;9.212;2024-03-07T03:51:09;18.40;;;11.00;;
70169;SDS011;57543;45.442;9.212;2024-03-07T03:54:16;18.30;;;11.68;;
70169;SDS011;57543;45.442;9.212;2024-03-07T03:57:22;19.30;;;11.32;;
70169;SDS011;57543;45.442;9.212;2024-03-07T04:00:28;20.98;;;11.85;;
70169;SDS011;57543;45.442;9.212;2024-03-07T04:03:32;17.67;;;11.33;;
70169;SDS011;57543;45.442;9.212;2024-03-07T04:06:35;19.73;;;11.55;;
70169;SDS011;57543;45.442;9.212;2024-03-07T04:09:39;18.67;;;11.73;;
70169;SDS011;57543;45.442;9.212;2024-03-07T04:12:45;16.73;;;11.02;;
70169;SDS011;57543;45.442;9.212;2024-03-07T04:15:49;17.08;;;11.38;;
70169;SDS011;57543;45.442;9.212;2024-03-07T04:18:53;17.60;;;12.00;;
70169;SDS011;57543;45.442;9.212;2024-03-07T04:21:57;18.30;;;11.45;;
70169;SDS011;57543;45.442;9.212;2024-03-07T04:25:01;18.23;;;11.73;;
70169;SDS011;57543;45.442;9.212;2024-03-07T04:28:08;17.85;;;11.43;;
70169;SDS011;57543;45.442;9.212;2024-03-07T04:31:11;18.52;;;11.27;;
70169;SDS011;57543;45.442;9.212;2024-03-07T04:34:14;17.43;;;11.03;;
70169;SDS011;57543;45.442;9.212;2024-03-07T04:37:19;15.30;;;11.13;;
70169;SDS011;57543;45.442;9.212;2024-03-07T04:40:23;19.02;;;11.20;;
70169;SDS011;57543;45.442;9.212;2024-03-07T04:43:27;17.75;;;10.45;;
70169;SDS011;57543;45.442;9.212;2024-03-07T04:46:34;16.58;;;10.73;;
70169;SDS011;57543;45.442;9.212;2024-03-07T04:49:38;16.23;;;10.67;;
70169;SDS011;57543;45.442;9.212;2024-03-07T04:52:46;17.10;;;10.73;;
70169;SDS011;57543;45.442;9.212;2024-03-07T04:55:50;19.08;;;10.75;;
70169;SDS011;57543;45.442;9.212;2024-03-07T04:58:54;18.55;;;10.57;;
70169;SDS011;57543;45.442;9.212;2024-03-07T05:01:58;16.58;;;10.05;;
70169;SDS011;57543;45.442;9.212;2024-03-07T05:05:01;17.43;;;10.10;;
70169;SDS011;57543;45.442;9.212;2024-03-07T05:08:04;16.48;;;10.25;;
70169;SDS011;57543;45.442;9.212;2024-03-07T05:11:08;17.02;;;10.35;;
70169;SDS011;57543;45.442;9.212;2024-03-07T05:14:11;19.08;;;10.20;;
70169;SDS011;57543;45.442;9.212;2024-03-07T05:17:14;19.48;;;10.95;;
70169;SDS011;57543;45.442;9.212;2024-03-07T05:20:18;17.00;;;9.57;;
70169;SDS011;57543;45.442;9.212;2024-03-07T05:23:22;16.42;;;9.95;;
70169;SDS011;57543;45.442;9.212;2024-03-07T05:26:26;16.80;;;10.80;;
70169;SDS011;57543;45.442;9.212;2024-03-07T05:29:32;18.08;;;10.15;;
70169;SDS011;57543;45.442;9.212;2024-03-07T05:32:35;16.33;;;10.43;;
70169;SDS011;57543;45.442;9.212;2024-03-07T05:35:45;18.70;;;10.20;;
70169;SDS011;57543;45.442;9.212;2024-03-07T05:38:49;16.63;;;10.15;;
70169;SDS011;57543;45.442;9.212;2024-03-07T05:41:52;15.38;;;11.07;;
70169;SDS011;57543;45.442;9.212;2024-03-07T05:44:55;20.60;;;10.13;;
70169;SDS011;57543;45.442;9.212;2024-03-07T05:48:13;19.10;;;10.80;;
70169;SDS011;57543;45.442;9.212;2024-03-07T05:51:18;18.63;;;11.40;;
70169;SDS011;57543;45.442;9.212;2024-03-07T05:54:24;17.45;;;11.23;;
70169;SDS011;57543;45.442;9.212;2024-03-07T05:57:27;18.38;;;11.38;;
70169;SDS011;57543;45.442;9.212;2024-03-07T06:00:31;18.42;;;11.40;;
70169;SDS011;57543;45.442;9.212;2024-03-07T06:03:39;19.23;;;11.73;;
70169;SDS011;57543;45.442;9.212;2024-03-07T06:06:45;18.70;;;11.57;;
70169;SDS011;57543;45.442;9.212;2024-03-07T06:09:49;20.50;;;10.70;;
70169;SDS011;57543;45.442;9.212;2024-03-07T06:12:53;17.58;;;11.60;;
70169;SDS011;57543;45.442;9.212;2024-03-07T06:15:57;22.40;;;12.48;;
70169;SDS011;57543;45.442;9.212;2024-03-07T06:19:04;22.48;;;12.07;;
70169;SDS011;57543;45.442;9.212;2024-03-07T06:22:12;21.67;;;11.90;;
70169;SDS011;57543;45.442;9.212;2024-03-07T06:25:17;17.50;;;10.88;;
70169;SDS011;57543;45.442;9.212;2024-03-07T06:28:42;18.70;;;10.95;;
70169;SDS011;57543;45.442;9.212;2024-03-07T06:31:46;17.98;;;11.35;;
70169;SDS011;57543;45.442;9.212;2024-03-07T06:34:49;18.35;;;11.30;;
70169;SDS011;57543;45.442;9.212;2024-03-07T06:37:52;16.57;;;10.80;;
70169;SDS011;57543;45.442;9.212;2024-03-07T06:40:55;18.02;;;10.23;;
70169;SDS011;57543;45.442;9.212;2024-03-07T06:43:59;20.42;;;11.43;;
70169;SDS011;57543;45.442;9.212;2024-03-07T06:47:03;17.33;;;10.95;;
70169;SDS011;57543;45.442;9.212;2024-03-07T06:50:08;20.00;;;10.80;;
70169;SDS011;57543;45.442;9.212;2024-03-07T06:53:13;22.27;;;11.67;;
70169;SDS011;57543;45.442;9.212;2024-03-07T06:56:17;18.92;;;11.23;;
70169;SDS011;57543;45.442;9.212;2024-03-07T06:59:20;18.08;;;11.50;;
70169;SDS011;57543;45.442;9.212;2024-03-07T07:02:26;25.88;;;13.10;;
70169;SDS011;57543;45.442;9.212;2024-03-07T07:05:33;19.52;;;12.07;;
70169;SDS011;57543;45.442;9.212;2024-03-07T07:08:37;21.27;;;12.33;;
70169;SDS011;57543;45.442;9.212;2024-03-07T07:11:44;22.60;;;11.73;;
70169;SDS011;57543;45.442;9.212;2024-03-07T07:14:49;19.98;;;12.35;;
70169;SDS011;57543;45.442;9.212;2024-03-07T07:17:52;18.98;;;11.60;;
70169;SDS011;57543;45.442;9.212;2024-03-07T07:20:56;20.10;;;12.45;;
70169;SDS011;57543;45.442;9.212;2024-03-07T07:24:01;22.37;;;13.33;;
70169;SDS011;57543;45.442;9.212;2024-03-07T07:27:05;20.33;;;12.00;;
70169;SDS011;57543;45.442;9.212;2024-03-07T07:30:11;21.80;;;12.50;;
70169;SDS011;57543;45.442;9.212;2024-03-07T07:33:18;22.30;;;12.70;;
70169;SDS011;57543;45.442;9.212;2024-03-07T07:36:22;19.77;;;12.13;;
70169;SDS011;57543;45.442;9.212;2024-03-07T07:39:25;21.87;;;13.33;;
70169;SDS011;57543;45.442;9.212;2024-03-07T07:42:28;22.80;;;12.57;;
70169;SDS011;57543;45.442;9.212;2024-03-07T07:45:33;25.45;;;13.85;;
70169;SDS011;57543;45.442;9.212;2024-03-07T07:48:44;22.38;;;13.10;;
70169;SDS011;57543;45.442;9.212;2024-03-07T07:51:50;20.25;;;11.93;;
70169;SDS011;57543;45.442;9.212;2024-03-07T07:54:54;23.17;;;12.23;;
70169;SDS011;57543;45.442;9.212;2024-03-07T07:57:58;22.10;;;13.73;;
70169;SDS011;57543;45.442;9.212;2024-03-07T08:01:03;18.48;;;12.63;;
70169;SDS011;57543;45.442;9.212;2024-03-07T08:04:07;21.02;;;13.27;;
70169;SDS011;57543;45.442;9.212;2024-03-07T08:07:14;21.77;;;12.63;;
70169;SDS011;57543;45.442;9.212;2024-03-07T08:10:24;23.90;;;13.27;;
70169;SDS011;57543;45.442;9.212;2024-03-07T08:13:29;23.27;;;12.95;;
70169;SDS011;57543;45.442;9.212;2024-03-07T08:16:35;19.48;;;12.07;;
70169;SDS011;57543;45.442;9.212;2024-03-07T08:19:39;20.70;;;12.27;;
70169;SDS011;57543;45.442;9.212;2024-03-07T08:22:43;16.55;;;10.65;;
70169;SDS011;57543;45.442;9.212;2024-03-07T08:25:47;21.20;;;11.37;;
70169;SDS011;57543;45.442;9.212;2024-03-07T08:28:53;17.48;;;10.55;;
70169;SDS011;57543;45.442;9.212;2024-03-07T08:32:04;17.75;;;10.45;;
70169;SDS011;57543;45.442;9.212;2024-03-07T08:35:11;15.95;;;9.20;;
70169;SDS011;57543;45.442;9.212;2024-03-07T08:38:19;17.45;;;10.15;;
70169;SDS011;57543;45.442;9.212;2024-03-07T08:41:29;14.67;;;9.30;;
70169;SDS011;57543;45.442;9.212;2024-03-07T08:44:34;15.63;;;9.43;;
70169;SDS011;57543;45.442;9.212;2024-03-07T08:47:40;13.95;;;9.50;;
70169;SDS011;57543;45.442;9.212;2024-03-07T08:50:44;16.95;;;8.73;;
70169;SDS011;57543;45.442;9.212;2024-03-07T08:53:53;16.90;;;9.70;;
70169;SDS011;57543;45.442;9.212;2024-03-07T08:56:59;17.87;;;9.40;;
70169;SDS011;57543;45.442;9.212;2024-03-07T09:00:04;18.55;;;10.48;;
70169;SDS011;57543;45.442;9.212;2024-03-07T09:03:13;17.48;;;10.55;;
70169;SDS011;57543;45.442;9.212;2024-03-07T09:06:18;16.38;;;9.80;;
70169;SDS011;57543;45.442;9.212;2024-03-07T09:09:22;16.45;;;11.07;;
70169;SDS011;57543;45.442;9.212;2024-03-07T09:12:32;21.17;;;12.07;;
70169;SDS011;57543;45.442;9.212;2024-03-07T09:15:35;17.10;;;11.15;;
70169;SDS011;57543;45.442;9.212;2024-03-07T09:18:41;17.65;;;10.68;;
70169;SDS011;57543;45.442;9.212;2024-03-07T09:21:46;16.48;;;10.80;;
70169;SDS011;57543;45.442;9.212;2024-03-07T09:24:52;16.08;;;10.75;;
70169;SDS011;57543;45.442;9.212;2024-03-07T09:27:56;14.70;;;10.57;;
70169;SDS011;57543;45.442;9.212;2024-03-07T09:31:00;19.00;;;12.30;;
70169;SDS011;57543;45.442;9.212;2024-03-07T09:34:04;17.08;;;11.02;;
70169;SDS011;57543;45.442;9.212;2024-03-07T09:37:09;16.83;;;10.57;;
70169;SDS011;57543;45.442;9.212;2024-03-07T09:40:13;17.88;;;10.70;;
70169;SDS011;57543;45.442;9.212;2024-03-07T09:43:17;13.60;;;9.23;;
70169;SDS011;57543;45.442;9.212;2024-03-07T09:46:22;15.88;;;9.07;;
70169;SDS011;57543;45.442;9.212;2024-03-07T09:49:30;18.48;;;10.50;;
70169;SDS011;57543;45.442;9.212;2024-03-07T09:52:36;15.70;;;9.70;;
70169;SDS011;57543;45.442;9.212;2024-03-07T09:55:43;14.82;;;9.32;;
70169;SDS011;57543;45.442;9.212;2024-03-07T09:58:51;15.27;;;9.97;;
70169;SDS011;57543;45.442;9.212;2024-03-07T10:02:00;14.40;;;9.02;;
70169;SDS011;57543;45.442;9.212;2024-03-07T10:05:07;13.15;;;8.45;;
70169;SDS011;57543;45.442;9.212;2024-03-07T10:08:17;12.55;;;8.70;;
70169;SDS011;57543;45.442;9.212;2024-03-07T10:11:23;11.35;;;6.78;;
70169;SDS011;57543;45.442;9.212;2024-03-07T10:14:28;11.90;;;6.60;;
70169;SDS011;57543;45.442;9.212;2024-03-07T10:17:36;12.60;;;6.85;;
70169;SDS011;57543;45.442;9.212;2024-03-07T10:20:42;10.50;;;6.78;;
70169;SDS011;57543;45.442;9.212;2024-03-07T10:23:46;7.93;;;4.80;;
70169;SDS011;57543;45.442;9.212;2024-03-07T10:26:50;7.93;;;5.30;;
70169;SDS011;57543;45.442;9.212;2024-03-07T10:29:53;9.30;;;5.13;;
70169;SDS011;57543;45.442;9.212;2024-03-07T10:32:59;8.63;;;4.80;;
70169;SDS011;57543;45.442;9.212;2024-03-07T10:36:09;9.63;;;5.18;;
70169;SDS011;57543;45.442;9.212;2024-03-07T10:39:19;9.02;;;5.38;;
70169;SDS011;57543;45.442;9.212;2024-03-07T10:42:31;8.48;;;5.93;;
70169;SDS011;57543;45.442;9.212;2024-03-07T10:45:45;8.03;;;5.43;;
70169;SDS011;57543;45.442;9.212;2024-03-07T10:48:57;9.88;;;5.53;;
70169;SDS011;57543;45.442;9.212;2024-03-07T10:52:16;9.00;;;6.22;;
70169;SDS011;57543;45.442;9.212;2024-03-07T10:56:03;11.25;;;6.07;;
70169;SDS011;57543;45.442;9.212;2024-03-07T10:59:18;10.82;;;6.53;;
70169;SDS011;57543;45.442;9.212;2024-03-07T11:05:33;9.57;;;6.53;;
70169;SDS011;57543;45.442;9.212;2024-03-07T11:08:37;10.77;;;6.82;;
70169;SDS011;57543;45.442;9.212;2024-03-07T11:11:41;15.13;;;8.75;;
70169;SDS011;57543;45.442;9.212;2024-03-07T11:14:47;12.27;;;8.27;;
70169;SDS011;57543;45.442;9.212;2024-03-07T11:17:56;13.47;;;8.17;;
70169;SDS011;57543;45.442;9.212;2024-03-07T11:20:59;13.30;;;7.18;;
70169;SDS011;57543;45.442;9.212;2024-03-07T11:24:03;12.18;;;7.82;;
70169;SDS011;57543;45.442;9.212;2024-03-07T11:27:14;10.60;;;6.93;;
70169;SDS011;57543;45.442;9.212;2024-03-07T11:30:17;13.02;;;7.10;;
70169;SDS011;57543;45.442;9.212;2024-03-07T11:33:21;8.80;;;5.90;;
70169;SDS011;57543;45.442;9.212;2024-03-07T11:39:54;8.68;;;6.13;;
70169;SDS011;57543;45.442;9.212;2024-03-07T11:43:00;9.68;;;5.68;;
70169;SDS011;57543;45.442;9.212;2024-03-07T11:46:07;6.40;;;4.25;;
70169;SDS011;57543;45.442;9.212;2024-03-07T11:49:17;8.17;;;4.90;;
70169;SDS011;57543;45.442;9.212;2024-03-07T11:52:24;9.73;;;5.38;;
70169;SDS011;57543;45.442;9.212;2024-03-07T11:55:27;9.48;;;5.78;;
70169;SDS011;57543;45.442;9.212;2024-03-07T11:58:47;9.32;;;4.93;;
70169;SDS011;57543;45.442;9.212;2024-03-07T12:02:01;7.85;;;4.80;;
70169;SDS011;57543;45.442;9.212;2024-03-07T12:05:05;7.60;;;4.90;;
70169;SDS011;57543;45.442;9.212;2024-03-07T12:08:09;9.38;;;4.80;;
70169;SDS011;57543;45.442;9.212;2024-03-07T12:11:16;7.80;;;5.38;;
70169;SDS011;57543;45.442;9.212;2024-03-07T12:14:21;7.18;;;5.00;;
70169;SDS011;57543;45.442;9.212;2024-03-07T12:17:34;9.18;;;5.40;;
70169;SDS011;57543;45.442;9.212;2024-03-07T12:20:43;9.37;;;5.27;;
70169;SDS011;57543;45.442;9.212;2024-03-07T12:23:53;8.00;;;5.38;;
70169;SDS011;57543;45.442;9.212;2024-03-07T12:27:12;11.63;;;5.95;;
70169;SDS011;57543;45.442;9.212;2024-03-07T12:30:21;9.35;;;5.50;;
70169;SDS011;57543;45.442;9.212;2024-03-07T12:33:30;11.55;;;5.85;;
70169;SDS011;57543;45.442;9.212;2024-03-07T12:36:37;10.53;;;6.17;;
70169;SDS011;57543;45.442;9.212;2024-03-07T12:39:49;14.38;;;7.25;;
70169;SDS011;57543;45.442;9.212;2024-03-07T12:43:13;9.07;;;5.50;;
70169;SDS011;57543;45.442;9.212;2024-03-07T12:46:23;11.77;;;5.53;;
70169;SDS011;57543;45.442;9.212;2024-03-07T12:49:36;11.18;;;6.47;;
70169;SDS011;57543;45.442;9.212;2024-03-07T12:52:40;8.90;;;5.50;;
70169;SDS011;57543;45.442;9.212;2024-03-07T12:55:44;9.75;;;6.10;;
70169;SDS011;57543;45.442;9.212;2024-03-07T12:58:49;11.43;;;6.50;;
70169;SDS011;57543;45.442;9.212;2024-03-07T13:01:54;8.82;;;5.22;;
70169;SDS011;57543;45.442;9.212;2024-03-07T13:05:00;7.57;;;5.70;;
70169;SDS011;57543;45.442;9.212;2024-03-07T13:08:03;10.70;;;5.63;;
70169;SDS011;57543;45.442;9.212;2024-03-07T13:11:08;9.88;;;5.70;;
70169;SDS011;57543;45.442;9.212;2024-03-07T13:14:13;10.07;;;6.00;;
70169;SDS011;57543;45.442;9.212;2024-03-07T13:17:17;10.50;;;5.75;;
70169;SDS011;57543;45.442;9.212;2024-03-07T13:20:28;9.05;;;5.78;;
70169;SDS011;57543;45.442;9.212;2024-03-07T13:23:43;8.47;;;5.13;;
70169;SDS011;57543;45.442;9.212;2024-03-07T13:26:52;8.25;;;4.95;;
70169;SDS011;57543;45.442;9.212;2024-03-07T13:30:01;9.43;;;5.40;;
70169;SDS011;57543;45.442;9.212;2024-03-07T13:33:06;10.40;;;5.30;;
70169;SDS011;57543;45.442;9.212;2024-03-07T13:36:18;8.00;;;5.65;;
70169;SDS011;57543;45.442;9.212;2024-03-07T13:39:26;11.33;;;6.37;;
70169;SDS011;57543;45.442;9.212;2024-03-07T13:42:32;8.75;;;5.40;;
70169;SDS011;57543;45.442;9.212;2024-03-07T13:45:39;11.23;;;5.85;;
70169;SDS011;57543;45.442;9.212;2024-03-07T13:49:03;8.80;;;5.32;;
70169;SDS011;57543;45.442;9.212;2024-03-07T13:52:20;12.20;;;7.40;;
70169;SDS011;57543;45.442;9.212;2024-03-07T13:55:24;12.17;;;6.60;;
70169;SDS011;57543;45.442;9.212;2024-03-07T14:01:52;15.93;;;7.38;;
70169;SDS011;57543;45.442;9.212;2024-03-07T14:05:12;11.88;;;6.18;;
70169;SDS011;57543;45.442;9.212;2024-03-07T14:16:02;9.85;;;5.05;;
70169;SDS011;57543;45.442;9.212;2024-03-07T14:37:11;10.48;;;5.15;;
70169;SDS011;57543;45.442;9.212;2024-03-07T14:40:48;12.50;;;5.00;;
70169;SDS011;57543;45.442;9.212;2024-03-07T14:43:57;6.75;;;3.70;;
70169;SDS011;57543;45.442;9.212;2024-03-07T14:47:05;11.47;;;4.47;;
70169;SDS011;57543;45.442;9.212;2024-03-07T14:50:10;7.40;;;3.50;;
70169;SDS011;57543;45.442;9.212;2024-03-07T14:53:14;6.65;;;3.60;;
70169;SDS011;57543;45.442;9.212;2024-03-07T14:56:21;10.07;;;4.20;;
70169;SDS011;57543;45.442;9.212;2024-03-07T14:59:24;9.32;;;4.80;;
70169;SDS011;57543;45.442;9.212;2024-03-07T15:02:36;8.97;;;4.70;;
70169;SDS011;57543;45.442;9.212;2024-03-07T15:05:48;10.43;;;5.15;;
70169;SDS011;57543;45.442;9.212;2024-03-07T15:08:52;8.02;;;4.45;;
70169;SDS011;57543;45.442;9.212;2024-03-07T15:11:56;7.43;;;3.67;;
70169;SDS011;57543;45.442;9.212;2024-03-07T15:15:00;6.63;;;3.60;;
70169;SDS011;57543;45.442;9.212;2024-03-07T15:18:11;8.33;;;3.77;;
70169;SDS011;57543;45.442;9.212;2024-03-07T15:21:15;8.23;;;4.07;;
70169;SDS011;57543;45.442;9.212;2024-03-07T15:24:21;9.82;;;5.50;;
70169;SDS011;57543;45.442;9.212;2024-03-07T15:27:25;8.98;;;4.45;;
70169;SDS011;57543;45.442;9.212;2024-03-07T15:30:28;10.35;;;4.78;;
70169;SDS011;57543;45.442;9.212;2024-03-07T15:33:38;6.63;;;4.07;;
70169;SDS011;57543;45.442;9.212;2024-03-07T15:36:41;8.10;;;4.47;;
70169;SDS011;57543;45.442;9.212;2024-03-07T15:39:44;9.13;;;5.13;;
70169;SDS011;57543;45.442;9.212;2024-03-07T15:42:51;9.52;;;4.78;;
70169;SDS011;57543;45.442;9.212;2024-03-07T15:46:01;8.73;;;4.50;;
70169;SDS011;57543;45.442;9.212;2024-03-07T15:49:15;7.60;;;4.20;;
70169;SDS011;57543;45.442;9.212;2024-03-07T15:52:26;11.18;;;5.22;;
70169;SDS011;57543;45.442;9.212;2024-03-07T15:55:33;14.48;;;4.80;;
70169;SDS011;57543;45.442;9.212;2024-03-07T15:58:44;8.38;;;4.07;;
70169;SDS011;57543;45.442;9.212;2024-03-07T16:01:53;6.13;;;3.42;;
70169;SDS011;57543;45.442;9.212;2024-03-07T16:04:57;9.47;;;3.97;;
70169;SDS011;57543;45.442;9.212;2024-03-07T16:08:01;7.05;;;3.80;;
70169;SDS011;57543;45.442;9.212;2024-03-07T16:11:09;8.15;;;4.25;;
70169;SDS011;57543;45.442;9.212;2024-03-07T16:14:18;8.95;;;4.00;;
70169;SDS011;57543;45.442;9.212;2024-03-07T16:17:22;9.93;;;4.60;;
70169;SDS011;57543;45.442;9.212;2024-03-07T16:20:26;9.90;;;4.50;;
70169;SDS011;57543;45.442;9.212;2024-03-07T16:23:32;7.53;;;4.43;;
70169;SDS011;57543;45.442;9.212;2024-03-07T16:26:36;7.28;;;4.40;;
70169;SDS011;57543;45.442;9.212;2024-03-07T16:29:40;7.97;;;3.85;;
70169;SDS011;57543;45.442;9.212;2024-03-07T16:32:47;8.30;;;4.47;;
70169;SDS011;57543;45.442;9.212;2024-03-07T16:36:01;8.00;;;4.10;;
70169;SDS011;57543;45.442;9.212;2024-03-07T16:39:10;9.15;;;4.57;;
70169;SDS011;57543;45.442;9.212;2024-03-07T16:42:17;8.30;;;4.40;;
70169;SDS011;57543;45.442;9.212;2024-03-07T16:45:26;9.93;;;4.03;;
70169;SDS011;57543;45.442;9.212;2024-03-07T16:48:36;7.95;;;4.20;;
70169;SDS011;57543;45.442;9.212;2024-03-07T16:51:42;8.40;;;4.00;;
70169;SDS011;57543;45.442;9.212;2024-03-07T16:54:46;6.70;;;3.60;;
70169;SDS011;57543;45.442;9.212;2024-03-07T16:57:51;9.35;;;4.28;;
70169;SDS011;57543;45.442;9.212;2024-03-07T17:00:56;9.02;;;3.70;;
70169;SDS011;57543;45.442;9.212;2024-03-07T17:04:05;9.20;;;4.63;;
70169;SDS011;57543;45.442;9.212;2024-03-07T17:07:11;9.93;;;4.40;;
70169;SDS011;57543;45.442;9.212;2024-03-07T17:10:17;8.18;;;4.18;;
70169;SDS011;57543;45.442;9.212;2024-03-07T17:13:24;10.18;;;4.78;;
70169;SDS011;57543;45.442;9.212;2024-03-07T17:16:29;10.90;;;4.03;;
70169;SDS011;57543;45.442;9.212;2024-03-07T17:19:32;7.97;;;3.75;;
70169;SDS011;57543;45.442;9.212;2024-03-07T17:22:47;7.47;;;3.90;;
70169;SDS011;57543;45.442;9.212;2024-03-07T17:25:53;8.13;;;4.53;;
70169;SDS011;57543;45.442;9.212;2024-03-07T17:29:01;9.23;;;4.43;;
70169;SDS011;57543;45.442;9.212;2024-03-07T17:32:04;10.25;;;4.50;;
70169;SDS011;57543;45.442;9.212;2024-03-07T17:35:10;8.30;;;4.55;;
70169;SDS011;57543;45.442;9.212;2024-03-07T17:38:14;6.77;;;4.00;;
70169;SDS011;57543;45.442;9.212;2024-03-07T17:41:18;11.73;;;5.47;;
70169;SDS011;57543;45.442;9.212;2024-03-07T17:44:24;11.02;;;5.32;;
70169;SDS011;57543;45.442;9.212;2024-03-07T17:47:33;8.68;;;4.30;;
70169;SDS011;57543;45.442;9.212;2024-03-07T17:50:39;10.93;;;5.05;;
70169;SDS011;57543;45.442;9.212;2024-03-07T17:53:42;9.73;;;4.67;;
70169;SDS011;57543;45.442;9.212;2024-03-07T17:56:47;10.80;;;5.15;;
70169;SDS011;57543;45.442;9.212;2024-03-07T17:59:50;12.05;;;5.53;;
70169;SDS011;57543;45.442;9.212;2024-03-07T18:03:04;10.52;;;5.15;;
70169;SDS011;57543;45.442;9.212;2024-03-07T18:06:12;12.63;;;6.25;;
70169;SDS011;57543;45.442;9.212;2024-03-07T18:09:16;16.33;;;6.53;;
70169;SDS011;57543;45.442;9.212;2024-03-07T18:12:31;11.75;;;5.70;;
70169;SDS011;57543;45.442;9.212;2024-03-07T18:15:36;13.77;;;5.57;;
70169;SDS011;57543;45.442;9.212;2024-03-07T18:18:43;15.02;;;5.95;;
70169;SDS011;57543;45.442;9.212;2024-03-07T18:21:48;9.88;;;5.65;;
70169;SDS011;57543;45.442;9.212;2024-03-07T18:24:54;13.40;;;5.80;;
70169;SDS011;57543;45.442;9.212;2024-03-07T18:28:02;10.45;;;5.70;;
70169;SDS011;57543;45.442;9.212;2024-03-07T18:31:08;13.13;;;6.10;;
70169;SDS011;57543;45.442;9.212;2024-03-07T18:34:30;9.00;;;5.38;;
70169;SDS011;57543;45.442;9.212;2024-03-07T18:37:39;11.73;;;5.57;;
70169;SDS011;57543;45.442;9.212;2024-03-07T18:40:45;11.20;;;5.90;;
70169;SDS011;57543;45.442;9.212;2024-03-07T18:43:52;11.10;;;6.05;;
70169;SDS011;57543;45.442;9.212;2024-03-07T18:46:56;10.75;;;6.47;;
70169;SDS011;57543;45.442;9.212;2024-03-07T18:50:02;17.40;;;8.77;;
70169;SDS011;57543;45.442;9.212;2024-03-07T18:53:12;13.32;;;8.10;;
70169;SDS011;57543;45.442;9.212;2024-03-07T18:56:17;17.00;;;8.70;;
70169;SDS011;57543;45.442;9.212;2024-03-07T18:59:23;14.52;;;8.00;;
70169;SDS011;57543;45.442;9.212;2024-03-07T19:02:27;16.08;;;8.77;;